createdAt,value
2023-04-18T05:15:35.368Z,9.93
2023-04-18T05:20:36.760Z,9.68
2023-04-18T05:25:38.106Z,10.05
2023-04-18T05:30:39.871Z,10.68
2023-04-18T05:35:41.227Z,10.15
2023-04-18T05:40:42.522Z,10.80
2023-04-18T05:45:45.074Z,9.77
2023-04-18T05:50:46.367Z,9.13
2023-04-18T05:55:47.852Z,9.57
2023-04-18T06:00:49.156Z,10.70
2023-04-18T06:05:51.065Z,10.02
2023-04-18T06:10:52.424Z,10.27
2023-04-18T06:15:53.987Z,10.57
2023-04-18T06:20:55.353Z,9.82
2023-04-18T06:25:57.069Z,9.07
2023-04-18T06:30:58.421Z,9.20
2023-04-18T06:35:59.765Z,9.25
2023-04-18T06:41:01.195Z,9.25
2023-04-18T06:46:04.121Z,8.02
2023-04-18T06:51:05.527Z,7.78
2023-04-18T06:56:07.027Z,7.32
2023-04-18T07:01:08.560Z,7.80
2023-04-18T07:06:10.000Z,7.75
2023-04-18T07:11:11.382Z,8.20
2023-04-18T07:16:12.828Z,7.43
2023-04-18T07:21:14.141Z,5.45
2023-04-18T07:26:15.468Z,6.50
2023-04-18T07:31:16.994Z,6.35
2023-04-18T07:36:18.440Z,5.68
2023-04-18T07:51:23.099Z,6.28
2023-04-18T07:56:24.527Z,6.78
2023-04-18T08:01:25.920Z,5.90
2023-04-18T08:06:28.293Z,5.68
2023-04-18T08:11:30.233Z,5.97
2023-04-18T08:16:31.522Z,5.28
2023-04-18T08:21:32.880Z,5.50
2023-04-18T08:26:34.130Z,5.97
2023-04-18T08:31:36.538Z,5.82
2023-04-18T08:36:37.932Z,5.40
2023-04-18T08:41:42.162Z,4.93
2023-04-18T08:46:43.452Z,6.10
2023-04-18T08:51:48.729Z,5.13
2023-04-18T08:57:09.242Z,5.05
2023-04-18T09:02:11.312Z,5.32
2023-04-18T09:07:13.672Z,5.50
2023-04-18T09:12:19.261Z,5.47
2023-04-18T09:17:34.125Z,6.05
2023-04-18T09:22:45.913Z,5.50
2023-04-18T09:27:47.281Z,5.20
2023-04-18T09:32:56.887Z,5.00
2023-04-18T09:37:58.340Z,5.93
2023-04-18T09:42:59.723Z,5.22
2023-04-18T09:48:01.093Z,4.75
2023-04-18T09:53:02.683Z,4.72
2023-04-18T09:58:04.752Z,4.57
2023-04-18T10:03:08.032Z,5.28
2023-04-18T10:08:10.334Z,5.47
2023-04-18T10:13:13.306Z,4.50
2023-04-18T10:18:15.528Z,4.43
2023-04-18T10:23:32.242Z,4.88
2023-04-18T10:28:53.919Z,4.75
2023-04-18T10:34:04.503Z,4.47
2023-04-18T10:39:23.049Z,4.07
2023-04-18T10:44:24.549Z,4.43
2023-04-18T10:49:37.678Z,4.25
2023-04-18T10:54:46.687Z,5.03
2023-04-18T10:59:54.279Z,5.00
2023-04-18T11:04:56.631Z,4.80
2023-04-18T11:09:58.046Z,4.45
2023-04-18T11:15:00.275Z,4.20
2023-04-18T11:20:03.153Z,5.40
2023-04-18T11:35:12.423Z,5.65
2023-04-18T11:40:13.929Z,4.20
2023-04-18T11:45:18.029Z,4.88
2023-04-18T11:50:20.603Z,4.70
2023-04-18T11:55:24.938Z,4.68
2023-04-18T12:16:01.331Z,4.72
2023-04-18T12:21:04.887Z,5.03
2023-04-18T12:26:07.177Z,4.43
2023-04-18T12:31:14.582Z,4.45
2023-04-18T12:36:16.277Z,5.13
2023-04-18T12:41:17.658Z,4.70
2023-04-18T12:46:19.100Z,4.75
2023-04-18T12:51:20.687Z,4.72
2023-04-18T12:56:22.161Z,4.95
2023-04-18T13:06:26.564Z,4.95
2023-04-18T13:11:33.837Z,4.13
2023-04-18T13:16:35.228Z,4.43
2023-04-18T13:21:39.918Z,4.50
2023-04-18T13:26:48.841Z,5.07
2023-04-18T13:32:06.506Z,5.22
2023-04-18T13:37:11.448Z,4.50
2023-04-18T13:42:14.655Z,5.13
2023-04-18T13:47:17.532Z,4.65
2023-04-18T13:52:18.862Z,5.03
2023-04-18T13:57:20.254Z,6.40
2023-04-18T14:07:23.473Z,5.75
2023-04-18T14:12:24.867Z,6.45
2023-04-18T14:17:26.482Z,5.93
2023-04-18T14:22:27.854Z,5.00
2023-04-18T14:27:32.128Z,5.43
2023-04-18T14:32:38.180Z,6.00
2023-04-18T14:37:40.140Z,5.68
